Decoded Metar for SPQU (AREQUIPA in PERU) (IATA:AQP) | Meteo·Mobile Aviation Weather
aviador You're here:

SPQU Decoded Metar

AREQUIPA in PERU
Report Time2019-07-22 15:00:00
UTC Time2019-07-22 15:53:32
Flight Rules vfr VFR
WindVRB at 05 kt
Visibility9999 m
Phenomena:N/A
Clouds:N/A
Expected CloudBase > 10,400 ft AGL from Temp-Dew spread
CeilingNone
Temp20°C (ISA +22)
Dew Point-6°C (17% RH)
AAT15.5°C
QNH1027 hPa
Density Alt10,433 ft
Elevation8,379 ft
Report Wrong Elevation
Raw Report
SPQU 221500Z VRB05KT CAVOK 20/M06 Q1027 NOSIG RMK PP000=

Extra information for SPQU:More info

Metar Taf Metar & Taf Last 4 Metars F.Rules Stats Wind Profile Meteogram Temp Stats Airport Information Weather charts Add Link Nearby VenuesMetar ALERT Operation Metar Decoded Social comments